sensor_id;sensor_type;location;lat;lon;timestamp;P1;durP1;ratioP1;P2;durP2;ratioP2
7523;SDS011;3803;51.666;7.630;2023-02-15T00:00:14;41.83;;;23.73;;
7523;SDS011;3803;51.666;7.630;2023-02-15T00:00:35;42.95;;;23.95;;
7523;SDS011;3803;51.666;7.630;2023-02-15T00:01:04;45.45;;;24.67;;
7523;SDS011;3803;51.666;7.630;2023-02-15T00:01:29;45.78;;;24.02;;
7523;SDS011;3803;51.666;7.630;2023-02-15T00:01:50;45.40;;;23.50;;
7523;SDS011;3803;51.666;7.630;2023-02-15T00:02:12;44.30;;;24.15;;
7523;SDS011;3803;51.666;7.630;2023-02-15T00:02:32;44.25;;;23.92;;
7523;SDS011;3803;51.666;7.630;2023-02-15T00:02:53;45.20;;;23.80;;
7523;SDS011;3803;51.666;7.630;2023-02-15T00:03:15;43.40;;;22.80;;
7523;SDS011;3803;51.666;7.630;2023-02-15T00:03:37;40.58;;;22.45;;
7523;SDS011;3803;51.666;7.630;2023-02-15T00:03:57;46.47;;;22.58;;
7523;SDS011;3803;51.666;7.630;2023-02-15T00:04:19;49.70;;;23.38;;
7523;SDS011;3803;51.666;7.630;2023-02-15T00:04:42;49.00;;;23.92;;
7523;SDS011;3803;51.666;7.630;2023-02-15T00:05:08;45.35;;;24.85;;
7523;SDS011;3803;51.666;7.630;2023-02-15T00:05:30;45.90;;;25.10;;
7523;SDS011;3803;51.666;7.630;2023-02-15T00:05:51;46.03;;;24.92;;
7523;SDS011;3803;51.666;7.630;2023-02-15T00:06:12;46.92;;;24.70;;
7523;SDS011;3803;51.666;7.630;2023-02-15T00:06:32;46.63;;;24.73;;
7523;SDS011;3803;51.666;7.630;2023-02-15T00:06:53;43.40;;;23.95;;
7523;SDS011;3803;51.666;7.630;2023-02-15T00:07:15;42.83;;;24.05;;
7523;SDS011;3803;51.666;7.630;2023-02-15T00:07:36;45.42;;;24.70;;
7523;SDS011;3803;51.666;7.630;2023-02-15T00:07:57;45.80;;;24.60;;
7523;SDS011;3803;51.666;7.630;2023-02-15T00:08:18;45.33;;;23.83;;
7523;SDS011;3803;51.666;7.630;2023-02-15T00:08:38;43.58;;;23.33;;
7523;SDS011;3803;51.666;7.630;2023-02-15T00:08:59;43.57;;;23.30;;
7523;SDS011;3803;51.666;7.630;2023-02-15T00:09:20;44.63;;;22.80;;
7523;SDS011;3803;51.666;7.630;2023-02-15T00:09:41;42.17;;;22.42;;
7523;SDS011;3803;51.666;7.630;2023-02-15T00:10:02;42.93;;;22.70;;
7523;SDS011;3803;51.666;7.630;2023-02-15T00:10:23;37.78;;;21.95;;
7523;SDS011;3803;51.666;7.630;2023-02-15T00:10:43;39.33;;;21.67;;
7523;SDS011;3803;51.666;7.630;2023-02-15T00:12:12;36.78;;;21.55;;
7523;SDS011;3803;51.666;7.630;2023-02-15T00:12:34;34.42;;;21.45;;
7523;SDS011;3803;51.666;7.630;2023-02-15T00:12:55;35.05;;;21.20;;
7523;SDS011;3803;51.666;7.630;2023-02-15T00:13:15;36.13;;;21.25;;
7523;SDS011;3803;51.666;7.630;2023-02-15T00:13:36;39.00;;;20.87;;
7523;SDS011;3803;51.666;7.630;2023-02-15T00:13:59;37.80;;;20.25;;
7523;SDS011;3803;51.666;7.630;2023-02-15T00:14:20;39.42;;;20.80;;
7523;SDS011;3803;51.666;7.630;2023-02-15T00:14:43;42.28;;;21.95;;
7523;SDS011;3803;51.666;7.630;2023-02-15T00:15:04;42.22;;;21.95;;
7523;SDS011;3803;51.666;7.630;2023-02-15T00:15:25;42.20;;;22.55;;
7523;SDS011;3803;51.666;7.630;2023-02-15T00:15:46;42.53;;;22.45;;
7523;SDS011;3803;51.666;7.630;2023-02-15T00:16:07;43.13;;;22.40;;
7523;SDS011;3803;51.666;7.630;2023-02-15T00:16:30;40.63;;;21.23;;
7523;SDS011;3803;51.666;7.630;2023-02-15T00:16:51;36.35;;;21.02;;
7523;SDS011;3803;51.666;7.630;2023-02-15T00:17:13;34.78;;;20.83;;
7523;SDS011;3803;51.666;7.630;2023-02-15T00:17:34;40.08;;;21.70;;
7523;SDS011;3803;51.666;7.630;2023-02-15T00:17:54;40.78;;;21.65;;
7523;SDS011;3803;51.666;7.630;2023-02-15T00:18:22;37.97;;;20.95;;
7523;SDS011;3803;51.666;7.630;2023-02-15T00:18:43;34.50;;;20.20;;
7523;SDS011;3803;51.666;7.630;2023-02-15T00:19:04;35.77;;;20.50;;
7523;SDS011;3803;51.666;7.630;2023-02-15T00:19:25;36.00;;;20.17;;
7523;SDS011;3803;51.666;7.630;2023-02-15T00:19:46;36.00;;;20.30;;
7523;SDS011;3803;51.666;7.630;2023-02-15T00:20:06;34.53;;;19.80;;
7523;SDS011;3803;51.666;7.630;2023-02-15T00:20:27;34.28;;;19.50;;
7523;SDS011;3803;51.666;7.630;2023-02-15T00:20:48;34.27;;;19.00;;
7523;SDS011;3803;51.666;7.630;2023-02-15T00:21:09;37.67;;;19.25;;
7523;SDS011;3803;51.666;7.630;2023-02-15T00:21:31;39.10;;;19.90;;
7523;SDS011;3803;51.666;7.630;2023-02-15T00:21:53;39.90;;;20.52;;
7523;SDS011;3803;51.666;7.630;2023-02-15T00:22:14;35.97;;;19.80;;
7523;SDS011;3803;51.666;7.630;2023-02-15T00:22:35;35.20;;;19.90;;
7523;SDS011;3803;51.666;7.630;2023-02-15T00:22:55;36.13;;;19.63;;
7523;SDS011;3803;51.666;7.630;2023-02-15T00:23:16;35.35;;;19.33;;
7523;SDS011;3803;51.666;7.630;2023-02-15T00:23:37;34.05;;;19.20;;
7523;SDS011;3803;51.666;7.630;2023-02-15T00:23:58;33.80;;;19.00;;
7523;SDS011;3803;51.666;7.630;2023-02-15T00:24:21;34.90;;;19.17;;
7523;SDS011;3803;51.666;7.630;2023-02-15T00:24:41;34.05;;;18.90;;
7523;SDS011;3803;51.666;7.630;2023-02-15T00:25:02;33.57;;;18.60;;
7523;SDS011;3803;51.666;7.630;2023-02-15T00:25:23;32.92;;;18.45;;
7523;SDS011;3803;51.666;7.630;2023-02-15T00:25:43;33.00;;;18.52;;
7523;SDS011;3803;51.666;7.630;2023-02-15T00:26:08;32.38;;;18.48;;
7523;SDS011;3803;51.666;7.630;2023-02-15T00:26:30;31.58;;;18.10;;
7523;SDS011;3803;51.666;7.630;2023-02-15T00:26:51;31.20;;;18.27;;
7523;SDS011;3803;51.666;7.630;2023-02-15T00:27:12;30.27;;;17.90;;
7523;SDS011;3803;51.666;7.630;2023-02-15T00:27:33;28.80;;;17.88;;
7523;SDS011;3803;51.666;7.630;2023-02-15T00:27:56;29.48;;;17.85;;
7523;SDS011;3803;51.666;7.630;2023-02-15T00:28:26;31.13;;;18.10;;
7523;SDS011;3803;51.666;7.630;2023-02-15T00:28:46;33.35;;;18.17;;
7523;SDS011;3803;51.666;7.630;2023-02-15T00:29:08;33.17;;;18.42;;
7523;SDS011;3803;51.666;7.630;2023-02-15T00:29:29;32.05;;;18.58;;
7523;SDS011;3803;51.666;7.630;2023-02-15T00:29:50;29.80;;;17.85;;
7523;SDS011;3803;51.666;7.630;2023-02-15T00:30:11;28.38;;;17.85;;
7523;SDS011;3803;51.666;7.630;2023-02-15T00:31:42;31.50;;;16.38;;
7523;SDS011;3803;51.666;7.630;2023-02-15T00:32:03;30.38;;;16.50;;
7523;SDS011;3803;51.666;7.630;2023-02-15T00:32:25;29.13;;;16.63;;
7523;SDS011;3803;51.666;7.630;2023-02-15T00:32:47;27.85;;;16.80;;
7523;SDS011;3803;51.666;7.630;2023-02-15T00:33:08;27.20;;;15.98;;
7523;SDS011;3803;51.666;7.630;2023-02-15T00:33:28;26.80;;;15.88;;
7523;SDS011;3803;51.666;7.630;2023-02-15T00:33:49;25.15;;;15.05;;
7523;SDS011;3803;51.666;7.630;2023-02-15T00:34:11;23.92;;;14.88;;
7523;SDS011;3803;51.666;7.630;2023-02-15T00:34:39;22.65;;;14.70;;
7523;SDS011;3803;51.666;7.630;2023-02-15T00:35:00;22.63;;;14.75;;
7523;SDS011;3803;51.666;7.630;2023-02-15T00:35:21;24.27;;;15.02;;
7523;SDS011;3803;51.666;7.630;2023-02-15T00:35:41;26.17;;;15.50;;
7523;SDS011;3803;51.666;7.630;2023-02-15T00:36:02;27.83;;;16.20;;
7523;SDS011;3803;51.666;7.630;2023-02-15T00:36:24;26.88;;;15.98;;
7523;SDS011;3803;51.666;7.630;2023-02-15T00:36:48;26.13;;;15.70;;
7523;SDS011;3803;51.666;7.630;2023-02-15T00:37:09;25.88;;;15.68;;
7523;SDS011;3803;51.666;7.630;2023-02-15T00:37:30;26.20;;;15.77;;
7523;SDS011;3803;51.666;7.630;2023-02-15T00:37:51;28.27;;;15.50;;
7523;SDS011;3803;51.666;7.630;2023-02-15T00:38:12;27.40;;;15.38;;
7523;SDS011;3803;51.666;7.630;2023-02-15T00:38:33;27.73;;;15.40;;
7523;SDS011;3803;51.666;7.630;2023-02-15T00:38:54;25.23;;;15.88;;
7523;SDS011;3803;51.666;7.630;2023-02-15T00:39:15;25.40;;;15.55;;
7523;SDS011;3803;51.666;7.630;2023-02-15T00:39:37;24.88;;;15.15;;
7523;SDS011;3803;51.666;7.630;2023-02-15T00:39:59;24.73;;;14.73;;
7523;SDS011;3803;51.666;7.630;2023-02-15T00:40:20;24.33;;;14.82;;
7523;SDS011;3803;51.666;7.630;2023-02-15T00:40:41;23.73;;;14.93;;
7523;SDS011;3803;51.666;7.630;2023-02-15T00:41:02;24.20;;;14.77;;
7523;SDS011;3803;51.666;7.630;2023-02-15T00:41:24;25.58;;;14.38;;
7523;SDS011;3803;51.666;7.630;2023-02-15T00:41:45;25.98;;;14.52;;
7523;SDS011;3803;51.666;7.630;2023-02-15T00:42:06;25.20;;;14.68;;
7523;SDS011;3803;51.666;7.630;2023-02-15T00:42:27;24.00;;;14.53;;
7523;SDS011;3803;51.666;7.630;2023-02-15T00:42:48;24.63;;;14.70;;
7523;SDS011;3803;51.666;7.630;2023-02-15T00:43:09;24.75;;;14.65;;
7523;SDS011;3803;51.666;7.630;2023-02-15T00:43:30;26.38;;;14.68;;
7523;SDS011;3803;51.666;7.630;2023-02-15T00:43:51;27.13;;;14.35;;
7523;SDS011;3803;51.666;7.630;2023-02-15T00:44:14;25.88;;;14.20;;
7523;SDS011;3803;51.666;7.630;2023-02-15T00:44:35;24.88;;;14.50;;
7523;SDS011;3803;51.666;7.630;2023-02-15T00:44:55;23.75;;;14.55;;
7523;SDS011;3803;51.666;7.630;2023-02-15T00:45:16;24.25;;;14.32;;
7523;SDS011;3803;51.666;7.630;2023-02-15T00:45:36;24.67;;;14.00;;
7523;SDS011;3803;51.666;7.630;2023-02-15T00:45:57;23.60;;;13.55;;
7523;SDS011;3803;51.666;7.630;2023-02-15T00:46:18;25.38;;;14.05;;
7523;SDS011;3803;51.666;7.630;2023-02-15T00:46:40;25.38;;;14.73;;
7523;SDS011;3803;51.666;7.630;2023-02-15T00:47:03;25.38;;;14.77;;
7523;SDS011;3803;51.666;7.630;2023-02-15T00:47:23;24.15;;;14.57;;
7523;SDS011;3803;51.666;7.630;2023-02-15T00:47:45;24.25;;;13.60;;
7523;SDS011;3803;51.666;7.630;2023-02-15T00:48:05;26.40;;;13.57;;
7523;SDS011;3803;51.666;7.630;2023-02-15T00:48:26;24.65;;;13.15;;
7523;SDS011;3803;51.666;7.630;2023-02-15T00:48:47;23.55;;;13.55;;
7523;SDS011;3803;51.666;7.630;2023-02-15T00:49:08;21.20;;;14.10;;
7523;SDS011;3803;51.666;7.630;2023-02-15T00:49:29;22.10;;;14.30;;
7523;SDS011;3803;51.666;7.630;2023-02-15T00:49:49;22.03;;;13.70;;
7523;SDS011;3803;51.666;7.630;2023-02-15T00:50:10;22.92;;;13.55;;
7523;SDS011;3803;51.666;7.630;2023-02-15T00:50:31;26.63;;;14.55;;
7523;SDS011;3803;51.666;7.630;2023-02-15T00:50:53;25.47;;;14.90;;
7523;SDS011;3803;51.666;7.630;2023-02-15T00:51:15;25.40;;;14.85;;
7523;SDS011;3803;51.666;7.630;2023-02-15T00:51:37;21.05;;;13.80;;
7523;SDS011;3803;51.666;7.630;2023-02-15T00:51:59;21.58;;;13.77;;
7523;SDS011;3803;51.666;7.630;2023-02-15T00:52:21;22.95;;;13.85;;
7523;SDS011;3803;51.666;7.630;2023-02-15T00:52:41;23.30;;;14.03;;
7523;SDS011;3803;51.666;7.630;2023-02-15T00:53:02;23.83;;;14.18;;
7523;SDS011;3803;51.666;7.630;2023-02-15T00:53:23;21.02;;;13.65;;
7523;SDS011;3803;51.666;7.630;2023-02-15T00:53:44;22.58;;;14.05;;
7523;SDS011;3803;51.666;7.630;2023-02-15T00:54:05;22.27;;;13.93;;
7523;SDS011;3803;51.666;7.630;2023-02-15T00:54:26;24.05;;;14.23;;
7523;SDS011;3803;51.666;7.630;2023-02-15T00:54:47;25.13;;;14.68;;
7523;SDS011;3803;51.666;7.630;2023-02-15T00:55:07;24.90;;;14.57;;
7523;SDS011;3803;51.666;7.630;2023-02-15T00:55:28;24.93;;;14.20;;
7523;SDS011;3803;51.666;7.630;2023-02-15T00:55:50;23.40;;;13.38;;
7523;SDS011;3803;51.666;7.630;2023-02-15T00:56:11;26.33;;;14.00;;
7523;SDS011;3803;51.666;7.630;2023-02-15T00:56:31;24.88;;;13.95;;
7523;SDS011;3803;51.666;7.630;2023-02-15T00:56:52;26.38;;;14.50;;
7523;SDS011;3803;51.666;7.630;2023-02-15T00:57:12;22.67;;;13.33;;
7523;SDS011;3803;51.666;7.630;2023-02-15T00:57:33;21.73;;;13.30;;
7523;SDS011;3803;51.666;7.630;2023-02-15T00:57:54;21.53;;;12.90;;
7523;SDS011;3803;51.666;7.630;2023-02-15T00:58:15;21.55;;;13.55;;
7523;SDS011;3803;51.666;7.630;2023-02-15T00:58:36;22.00;;;14.13;;
7523;SDS011;3803;51.666;7.630;2023-02-15T00:58:57;21.45;;;14.05;;
7523;SDS011;3803;51.666;7.630;2023-02-15T00:59:17;21.60;;;13.80;;
7523;SDS011;3803;51.666;7.630;2023-02-15T00:59:38;20.83;;;13.10;;
7523;SDS011;3803;51.666;7.630;2023-02-15T00:59:58;22.63;;;14.07;;
7523;SDS011;3803;51.666;7.630;2023-02-15T01:00:19;23.50;;;14.13;;
7523;SDS011;3803;51.666;7.630;2023-02-15T01:00:40;23.63;;;14.47;;
7523;SDS011;3803;51.666;7.630;2023-02-15T01:01:04;21.65;;;13.68;;
7523;SDS011;3803;51.666;7.630;2023-02-15T01:01:27;20.75;;;13.20;;
7523;SDS011;3803;51.666;7.630;2023-02-15T01:01:47;21.43;;;13.43;;
7523;SDS011;3803;51.666;7.630;2023-02-15T01:02:08;24.40;;;13.63;;
7523;SDS011;3803;51.666;7.630;2023-02-15T01:02:28;25.10;;;13.77;;
7523;SDS011;3803;51.666;7.630;2023-02-15T01:02:52;26.43;;;13.90;;
7523;SDS011;3803;51.666;7.630;2023-02-15T01:03:13;23.30;;;13.40;;
7523;SDS011;3803;51.666;7.630;2023-02-15T01:03:36;23.38;;;13.43;;
7523;SDS011;3803;51.666;7.630;2023-02-15T01:03:57;22.42;;;13.60;;
7523;SDS011;3803;51.666;7.630;2023-02-15T01:04:17;22.53;;;14.50;;
7523;SDS011;3803;51.666;7.630;2023-02-15T01:04:38;23.63;;;14.50;;
7523;SDS011;3803;51.666;7.630;2023-02-15T01:04:59;23.98;;;14.60;;
7523;SDS011;3803;51.666;7.630;2023-02-15T01:05:19;21.83;;;14.27;;
7523;SDS011;3803;51.666;7.630;2023-02-15T01:05:40;22.95;;;14.00;;
7523;SDS011;3803;51.666;7.630;2023-02-15T01:06:01;21.27;;;13.00;;
7523;SDS011;3803;51.666;7.630;2023-02-15T01:06:22;24.02;;;13.60;;
7523;SDS011;3803;51.666;7.630;2023-02-15T01:06:43;23.00;;;13.97;;
7523;SDS011;3803;51.666;7.630;2023-02-15T01:07:03;24.30;;;14.40;;
7523;SDS011;3803;51.666;7.630;2023-02-15T01:07:27;22.92;;;13.90;;
7523;SDS011;3803;51.666;7.630;2023-02-15T01:07:47;21.30;;;13.52;;
7523;SDS011;3803;51.666;7.630;2023-02-15T01:08:09;19.56;;;13.20;;
7523;SDS011;3803;51.666;7.630;2023-02-15T01:08:32;20.67;;;13.57;;
7523;SDS011;3803;51.666;7.630;2023-02-15T01:08:52;21.50;;;13.70;;
7523;SDS011;3803;51.666;7.630;2023-02-15T01:09:13;22.30;;;14.13;;
7523;SDS011;3803;51.666;7.630;2023-02-15T01:09:33;20.95;;;13.60;;
7523;SDS011;3803;51.666;7.630;2023-02-15T01:09:54;21.40;;;13.50;;
7523;SDS011;3803;51.666;7.630;2023-02-15T01:10:15;22.02;;;13.60;;
7523;SDS011;3803;51.666;7.630;2023-02-15T01:10:36;21.75;;;13.20;;
7523;SDS011;3803;51.666;7.630;2023-02-15T01:10:56;20.65;;;12.95;;
7523;SDS011;3803;51.666;7.630;2023-02-15T01:11:19;19.52;;;12.75;;
7523;SDS011;3803;51.666;7.630;2023-02-15T01:11:42;20.13;;;13.10;;
7523;SDS011;3803;51.666;7.630;2023-02-15T01:12:02;19.87;;;13.20;;
7523;SDS011;3803;51.666;7.630;2023-02-15T01:12:23;21.83;;;13.70;;
7523;SDS011;3803;51.666;7.630;2023-02-15T01:12:44;21.90;;;13.60;;
7523;SDS011;3803;51.666;7.630;2023-02-15T01:13:04;23.70;;;13.93;;
7523;SDS011;3803;51.666;7.630;2023-02-15T01:13:27;23.10;;;13.43;;
7523;SDS011;3803;51.666;7.630;2023-02-15T01:13:49;23.30;;;13.82;;
7523;SDS011;3803;51.666;7.630;2023-02-15T01:14:11;20.35;;;13.13;;
7523;SDS011;3803;51.666;7.630;2023-02-15T01:14:33;20.65;;;13.35;;
7523;SDS011;3803;51.666;7.630;2023-02-15T01:14:53;21.08;;;13.45;;
7523;SDS011;3803;51.666;7.630;2023-02-15T01:15:22;22.63;;;13.65;;
7523;SDS011;3803;51.666;7.630;2023-02-15T01:15:43;19.83;;;12.10;;
7523;SDS011;3803;51.666;7.630;2023-02-15T01:16:04;19.52;;;11.63;;
7523;SDS011;3803;51.666;7.630;2023-02-15T01:16:26;18.90;;;12.10;;
7523;SDS011;3803;51.666;7.630;2023-02-15T01:16:48;19.52;;;12.60;;
7523;SDS011;3803;51.666;7.630;2023-02-15T01:17:08;19.88;;;13.13;;
7523;SDS011;3803;51.666;7.630;2023-02-15T01:17:29;20.33;;;13.30;;
7523;SDS011;3803;51.666;7.630;2023-02-15T01:17:51;20.95;;;12.95;;
7523;SDS011;3803;51.666;7.630;2023-02-15T01:18:13;21.55;;;13.02;;
7523;SDS011;3803;51.666;7.630;2023-02-15T01:18:33;20.92;;;12.90;;
7523;SDS011;3803;51.666;7.630;2023-02-15T01:18:55;20.80;;;12.95;;
7523;SDS011;3803;51.666;7.630;2023-02-15T01:19:16;21.57;;;12.70;;
7523;SDS011;3803;51.666;7.630;2023-02-15T01:19:36;22.27;;;12.85;;
7523;SDS011;3803;51.666;7.630;2023-02-15T01:19:57;21.40;;;12.80;;
7523;SDS011;3803;51.666;7.630;2023-02-15T01:20:23;19.50;;;12.90;;
7523;SDS011;3803;51.666;7.630;2023-02-15T01:20:46;19.98;;;12.77;;
7523;SDS011;3803;51.666;7.630;2023-02-15T01:21:12;20.20;;;12.43;;
7523;SDS011;3803;51.666;7.630;2023-02-15T01:21:37;21.96;;;12.36;;
7523;SDS011;3803;51.666;7.630;2023-02-15T01:21:58;21.97;;;13.00;;
7523;SDS011;3803;51.666;7.630;2023-02-15T01:22:18;21.50;;;13.17;;
7523;SDS011;3803;51.666;7.630;2023-02-15T01:22:39;22.67;;;13.35;;
7523;SDS011;3803;51.666;7.630;2023-02-15T01:23:00;23.92;;;13.15;;
7523;SDS011;3803;51.666;7.630;2023-02-15T01:23:21;24.40;;;12.80;;
7523;SDS011;3803;51.666;7.630;2023-02-15T01:23:42;22.90;;;13.13;;
7523;SDS011;3803;51.666;7.630;2023-02-15T01:24:03;20.58;;;13.00;;
7523;SDS011;3803;51.666;7.630;2023-02-15T01:24:23;19.88;;;13.02;;
7523;SDS011;3803;51.666;7.630;2023-02-15T01:25:42;20.65;;;12.30;;
7523;SDS011;3803;51.666;7.630;2023-02-15T01:26:04;19.98;;;12.05;;
7523;SDS011;3803;51.666;7.630;2023-02-15T01:26:25;20.70;;;12.13;;
7523;SDS011;3803;51.666;7.630;2023-02-15T01:26:45;19.90;;;12.10;;
7523;SDS011;3803;51.666;7.630;2023-02-15T01:27:06;18.17;;;11.65;;
7523;SDS011;3803;51.666;7.630;2023-02-15T01:27:27;18.50;;;11.77;;
7523;SDS011;3803;51.666;7.630;2023-02-15T01:27:50;20.05;;;12.07;;
7523;SDS011;3803;51.666;7.630;2023-02-15T01:28:11;20.52;;;12.30;;
7523;SDS011;3803;51.666;7.630;2023-02-15T01:28:33;22.55;;;12.23;;
7523;SDS011;3803;51.666;7.630;2023-02-15T01:28:55;23.05;;;12.27;;
7523;SDS011;3803;51.666;7.630;2023-02-15T01:29:17;22.65;;;12.10;;
7523;SDS011;3803;51.666;7.630;2023-02-15T01:29:37;20.58;;;12.80;;
7523;SDS011;3803;51.666;7.630;2023-02-15T01:29:58;21.42;;;13.32;;
7523;SDS011;3803;51.666;7.630;2023-02-15T01:30:18;21.70;;;13.30;;
7523;SDS011;3803;51.666;7.630;2023-02-15T01:30:39;21.60;;;13.27;;
7523;SDS011;3803;51.666;7.630;2023-02-15T01:31:04;22.92;;;13.50;;
7523;SDS011;3803;51.666;7.630;2023-02-15T01:31:28;21.30;;;13.10;;
7523;SDS011;3803;51.666;7.630;2023-02-15T01:31:49;18.95;;;12.32;;
7523;SDS011;3803;51.666;7.630;2023-02-15T01:32:09;20.70;;;12.00;;
7523;SDS011;3803;51.666;7.630;2023-02-15T01:32:30;20.88;;;12.27;;
7523;SDS011;3803;51.666;7.630;2023-02-15T01:32:51;22.00;;;12.90;;
7523;SDS011;3803;51.666;7.630;2023-02-15T01:33:12;20.08;;;12.80;;
7523;SDS011;3803;51.666;7.630;2023-02-15T01:33:37;20.08;;;12.60;;
7523;SDS011;3803;51.666;7.630;2023-02-15T01:34:00;20.33;;;12.38;;
7523;SDS011;3803;51.666;7.630;2023-02-15T01:34:21;20.83;;;12.50;;
7523;SDS011;3803;51.666;7.630;2023-02-15T01:34:41;20.20;;;12.33;;
7523;SDS011;3803;51.666;7.630;2023-02-15T01:35:02;19.73;;;12.40;;
7523;SDS011;3803;51.666;7.630;2023-02-15T01:35:23;20.55;;;12.90;;
7523;SDS011;3803;51.666;7.630;2023-02-15T01:35:45;21.32;;;13.04;;
7523;SDS011;3803;51.666;7.630;2023-02-15T01:36:06;23.77;;;12.45;;
7523;SDS011;3803;51.666;7.630;2023-02-15T01:36:27;24.13;;;12.43;;
7523;SDS011;3803;51.666;7.630;2023-02-15T01:36:47;23.27;;;12.55;;
7523;SDS011;3803;51.666;7.630;2023-02-15T01:37:09;22.13;;;12.68;;
7523;SDS011;3803;51.666;7.630;2023-02-15T01:37:30;19.95;;;12.07;;
7523;SDS011;3803;51.666;7.630;2023-02-15T01:37:52;20.40;;;12.48;;
7523;SDS011;3803;51.666;7.630;2023-02-15T01:38:13;22.20;;;12.80;;
7523;SDS011;3803;51.666;7.630;2023-02-15T01:38:35;23.77;;;13.48;;
7523;SDS011;3803;51.666;7.630;2023-02-15T01:38:55;23.92;;;14.05;;
7523;SDS011;3803;51.666;7.630;2023-02-15T01:39:16;21.33;;;13.48;;
7523;SDS011;3803;51.666;7.630;2023-02-15T01:39:36;21.00;;;13.57;;
7523;SDS011;3803;51.666;7.630;2023-02-15T01:39:57;20.47;;;13.33;;
7523;SDS011;3803;51.666;7.630;2023-02-15T01:40:20;20.95;;;13.20;;
7523;SDS011;3803;51.666;7.630;2023-02-15T01:40:51;20.73;;;12.90;;
7523;SDS011;3803;51.666;7.630;2023-02-15T01:41:13;21.73;;;12.90;;
7523;SDS011;3803;51.666;7.630;2023-02-15T01:41:47;20.33;;;12.80;;
7523;SDS011;3803;51.666;7.630;2023-02-15T01:42:11;19.30;;;12.60;;
7523;SDS011;3803;51.666;7.630;2023-02-15T01:42:32;22.02;;;12.65;;
7523;SDS011;3803;51.666;7.630;2023-02-15T01:42:53;21.80;;;12.63;;
7523;SDS011;3803;51.666;7.630;2023-02-15T01:43:15;21.73;;;13.02;;
7523;SDS011;3803;51.666;7.630;2023-02-15T01:43:41;21.13;;;12.93;;
7523;SDS011;3803;51.666;7.630;2023-02-15T01:44:03;21.05;;;12.68;;
7523;SDS011;3803;51.666;7.630;2023-02-15T01:45:35;19.35;;;12.35;;
7523;SDS011;3803;51.666;7.630;2023-02-15T01:45:56;20.57;;;12.33;;
7523;SDS011;3803;51.666;7.630;2023-02-15T01:46:17;20.13;;;12.40;;
7523;SDS011;3803;51.666;7.630;2023-02-15T01:46:40;18.15;;;11.20;;
7523;SDS011;3803;51.666;7.630;2023-02-15T01:47:17;19.80;;;11.45;;
7523;SDS011;3803;51.666;7.630;2023-02-15T01:47:51;20.27;;;12.10;;
7523;SDS011;3803;51.666;7.630;2023-02-15T01:48:20;19.58;;;11.82;;
7523;SDS011;3803;51.666;7.630;2023-02-15T01:48:49;19.48;;;12.57;;
7523;SDS011;3803;51.666;7.630;2023-02-15T01:49:15;21.15;;;12.80;;
7523;SDS011;3803;51.666;7.630;2023-02-15T01:49:39;21.27;;;12.80;;
7523;SDS011;3803;51.666;7.630;2023-02-15T01:50:24;21.03;;;12.97;;
7523;SDS011;3803;51.666;7.630;2023-02-15T01:50:51;21.33;;;12.88;;
7523;SDS011;3803;51.666;7.630;2023-02-15T01:51:16;20.88;;;12.70;;
7523;SDS011;3803;51.666;7.630;2023-02-15T01:51:41;19.85;;;12.10;;
7523;SDS011;3803;51.666;7.630;2023-02-15T01:52:05;20.55;;;12.02;;
7523;SDS011;3803;51.666;7.630;2023-02-15T01:52:27;20.98;;;12.15;;
7523;SDS011;3803;51.666;7.630;2023-02-15T01:52:55;21.65;;;12.20;;
7523;SDS011;3803;51.666;7.630;2023-02-15T01:53:24;22.45;;;12.65;;
7523;SDS011;3803;51.666;7.630;2023-02-15T01:53:57;23.90;;;13.18;;
7523;SDS011;3803;51.666;7.630;2023-02-15T01:54:27;20.77;;;12.52;;
7523;SDS011;3803;51.666;7.630;2023-02-15T01:54:51;19.15;;;12.10;;
7523;SDS011;3803;51.666;7.630;2023-02-15T01:55:12;20.00;;;12.50;;
7523;SDS011;3803;51.666;7.630;2023-02-15T01:55:38;23.15;;;12.43;;
7523;SDS011;3803;51.666;7.630;2023-02-15T01:56:12;22.00;;;12.07;;
7523;SDS011;3803;51.666;7.630;2023-02-15T01:56:42;20.30;;;12.30;;
7523;SDS011;3803;51.666;7.630;2023-02-15T01:57:04;20.25;;;12.32;;
7523;SDS011;3803;51.666;7.630;2023-02-15T01:57:29;21.23;;;12.70;;
7523;SDS011;3803;51.666;7.630;2023-02-15T01:57:50;21.08;;;12.73;;
7523;SDS011;3803;51.666;7.630;2023-02-15T01:58:12;19.92;;;12.25;;
7523;SDS011;3803;51.666;7.630;2023-02-15T01:58:34;20.55;;;12.18;;
7523;SDS011;3803;51.666;7.630;2023-02-15T01:58:56;23.10;;;12.73;;
7523;SDS011;3803;51.666;7.630;2023-02-15T01:59:21;22.90;;;12.73;;
7523;SDS011;3803;51.666;7.630;2023-02-15T01:59:46;21.52;;;12.90;;
7523;SDS011;3803;51.666;7.630;2023-02-15T02:00:10;20.75;;;12.80;;
7523;SDS011;3803;51.666;7.630;2023-02-15T02:00:35;19.70;;;12.65;;
7523;SDS011;3803;51.666;7.630;2023-02-15T02:00:56;20.17;;;12.67;;
7523;SDS011;3803;51.666;7.630;2023-02-15T02:01:20;21.38;;;13.50;;
7523;SDS011;3803;51.666;7.630;2023-02-15T02:01:51;23.00;;;13.50;;
7523;SDS011;3803;51.666;7.630;2023-02-15T02:02:14;23.30;;;13.30;;
7523;SDS011;3803;51.666;7.630;2023-02-15T02:02:41;22.33;;;13.10;;
7523;SDS011;3803;51.666;7.630;2023-02-15T02:03:05;19.33;;;12.00;;
7523;SDS011;3803;51.666;7.630;2023-02-15T02:03:30;23.05;;;12.40;;
7523;SDS011;3803;51.666;7.630;2023-02-15T02:04:17;25.58;;;12.60;;
7523;SDS011;3803;51.666;7.630;2023-02-15T02:04:45;21.63;;;11.80;;
7523;SDS011;3803;51.666;7.630;2023-02-15T02:05:12;20.50;;;11.85;;
7523;SDS011;3803;51.666;7.630;2023-02-15T02:05:32;19.13;;;11.57;;
7523;SDS011;3803;51.666;7.630;2023-02-15T02:05:53;19.42;;;11.93;;
7523;SDS011;3803;51.666;7.630;2023-02-15T02:06:14;21.03;;;12.17;;
7523;SDS011;3803;51.666;7.630;2023-02-15T02:06:35;22.08;;;12.50;;
7523;SDS011;3803;51.666;7.630;2023-02-15T02:07:00;19.08;;;12.02;;
7523;SDS011;3803;51.666;7.630;2023-02-15T02:07:23;18.83;;;12.18;;
7523;SDS011;3803;51.666;7.630;2023-02-15T02:07:47;21.60;;;12.75;;
7523;SDS011;3803;51.666;7.630;2023-02-15T02:08:12;21.10;;;12.30;;
7523;SDS011;3803;51.666;7.630;2023-02-15T02:08:33;19.00;;;11.95;;
7523;SDS011;3803;51.666;7.630;2023-02-15T02:08:54;19.05;;;11.90;;
7523;SDS011;3803;51.666;7.630;2023-02-15T02:09:16;19.85;;;12.20;;
7523;SDS011;3803;51.666;7.630;2023-02-15T02:09:36;21.17;;;12.25;;
7523;SDS011;3803;51.666;7.630;2023-02-15T02:09:57;21.00;;;12.20;;
7523;SDS011;3803;51.666;7.630;2023-02-15T02:10:20;21.53;;;12.47;;
7523;SDS011;3803;51.666;7.630;2023-02-15T02:10:43;22.27;;;12.70;;
7523;SDS011;3803;51.666;7.630;2023-02-15T02:11:09;21.77;;;12.52;;
7523;SDS011;3803;51.666;7.630;2023-02-15T02:11:32;20.77;;;12.77;;
7523;SDS011;3803;51.666;7.630;2023-02-15T02:11:54;19.42;;;12.43;;
7523;SDS011;3803;51.666;7.630;2023-02-15T02:12:17;19.57;;;12.10;;
7523;SDS011;3803;51.666;7.630;2023-02-15T02:12:42;21.20;;;12.43;;
7523;SDS011;3803;51.666;7.630;2023-02-15T02:13:05;22.38;;;13.00;;
7523;SDS011;3803;51.666;7.630;2023-02-15T02:13:26;22.55;;;12.85;;
7523;SDS011;3803;51.666;7.630;2023-02-15T02:13:47;22.33;;;13.05;;
7523;SDS011;3803;51.666;7.630;2023-02-15T02:14:10;21.33;;;13.30;;
7523;SDS011;3803;51.666;7.630;2023-02-15T02:14:30;21.20;;;12.75;;
7523;SDS011;3803;51.666;7.630;2023-02-15T02:14:51;20.45;;;12.07;;
7523;SDS011;3803;51.666;7.630;2023-02-15T02:15:14;20.30;;;12.20;;
7523;SDS011;3803;51.666;7.630;2023-02-15T02:20:36;21.60;;;12.90;;
7523;SDS011;3803;51.666;7.630;2023-02-15T02:23:40;19.67;;;12.15;;
7523;SDS011;3803;51.666;7.630;2023-02-15T02:29:47;18.77;;;12.23;;
7523;SDS011;3803;51.666;7.630;2023-02-15T02:31:34;19.38;;;11.90;;
7523;SDS011;3803;51.666;7.630;2023-02-15T02:34:20;19.75;;;12.60;;
7523;SDS011;3803;51.666;7.630;2023-02-15T02:35:22;19.30;;;12.52;;
7523;SDS011;3803;51.666;7.630;2023-02-15T02:36:41;18.25;;;11.75;;
7523;SDS011;3803;51.666;7.630;2023-02-15T02:38:28;19.15;;;11.70;;
7523;SDS011;3803;51.666;7.630;2023-02-15T02:40:25;18.45;;;11.30;;